Wetterdaten: Woche 14.06.10 - 20.06.10 (KW24)
Datum Zeit Temperatur Luftfeuchte Luftdruck Niederschlag Wind Richtung Sonnenschein Solar Taupunkt Windchill Windben
14.06.2010 00:00 14.7 C 95 % 1011.6 hPa 0.0 l/m 1.4 km/h (1 Bft) W 0.00 h 0 W/m 13.9 C 14.7 C 3.5 km/h (1 Bft)
14.06.2010 01:00 14.9 C 92 % 1011.2 hPa 0.0 l/m 0.1 km/h (0 Bft) W-SW 0.00 h 0 W/m 13.7 C 14.9 C 0.3 km/h (0 Bft)
14.06.2010 02:00 14.5 C 94 % 1011.1 hPa 0.0 l/m 0.3 km/h (0 Bft) S-SO 0.00 h 0 W/m 13.6 C 14.5 C 0.8 km/h (0 Bft)
14.06.2010 03:00 13.9 C 95 % 1010.8 hPa 0.0 l/m 1.5 km/h (1 Bft) O-NO 0.00 h 0 W/m 13.1 C 13.9 C 2.8 km/h (1 Bft)
14.06.2010 04:00 13.9 C 95 % 1011.1 hPa 0.0 l/m 1.3 km/h (1 Bft) O-NO 0.00 h 0 W/m 13.0 C 13.9 C 2.6 km/h (1 Bft)
14.06.2010 05:00 14.1 C 94 % 1011.4 hPa 0.0 l/m 0.2 km/h (0 Bft) O 0.00 h 7 W/m 13.2 C 14.1 C 0.7 km/h (0 Bft)
14.06.2010 06:00 14.4 C 93 % 1011.8 hPa 0.0 l/m 0.1 km/h (0 Bft) O 0.00 h 33 W/m 13.4 C 14.4 C 0.6 km/h (0 Bft)
14.06.2010 07:00 14.9 C 93 % 1012.0 hPa 0.0 l/m 0.4 km/h (0 Bft) NW 0.00 h 94 W/m 13.8 C 14.9 C 1.3 km/h (1 Bft)
14.06.2010 08:00 15.4 C 93 % 1012.5 hPa 0.0 l/m 1.2 km/h (1 Bft) W-NW 0.10 h 199 W/m 14.2 C 15.4 C 2.9 km/h (1 Bft)
14.06.2010 09:00 17.4 C 85 % 1012.5 hPa 0.0 l/m 0.6 km/h (0 Bft) SO 0.85 h 480 W/m 14.8 C 17.4 C 1.8 km/h (1 Bft)
14.06.2010 10:00 17.9 C 83 % 1012.3 hPa 0.0 l/m 1.9 km/h (1 Bft) W-NW 0.33 h 386 W/m 15.0 C 17.9 C 3.6 km/h (1 Bft)
14.06.2010 11:00 19.6 C 76 % 1012.5 hPa 0.0 l/m 2.6 km/h (1 Bft) NW 0.72 h 722 W/m 15.1 C 19.6 C 4.8 km/h (1 Bft)
14.06.2010 12:00 20.9 C 67 % 1012.4 hPa 0.0 l/m 3.1 km/h (1 Bft) O-SO 0.92 h 739 W/m 14.4 C 20.9 C 5.7 km/h (1 Bft)
14.06.2010 13:00 21.5 C 64 % 1012.2 hPa 0.0 l/m 1.9 km/h (1 Bft) SO 0.53 h 694 W/m 14.2 C 21.5 C 4.3 km/h (1 Bft)
14.06.2010 14:00 22.0 C 61 % 1011.8 hPa 0.0 l/m 3.0 km/h (1 Bft) O-SO 0.68 h 726 W/m 14.1 C 22.0 C 5.8 km/h (2 Bft)
14.06.2010 15:00 23.1 C 55 % 1011.4 hPa 0.0 l/m 2.8 km/h (1 Bft) SO 0.88 h 769 W/m 13.5 C 23.1 C 5.7 km/h (1 Bft)
14.06.2010 16:00 19.7 C 68 % 1012.0 hPa 0.0 l/m 7.7 km/h (2 Bft) W 0.13 h 174 W/m 13.5 C 19.7 C 12.7 km/h (3 Bft)
14.06.2010 17:00 20.9 C 67 % 1012.0 hPa 0.0 l/m 6.7 km/h (2 Bft) N-NW 0.90 h 493 W/m 14.4 C 20.9 C 11.1 km/h (2 Bft)
14.06.2010 18:00 22.1 C 64 % 1011.6 hPa 0.0 l/m 5.5 km/h (1 Bft) N-NW 1.00 h 361 W/m 14.8 C 22.1 C 9.2 km/h (2 Bft)
14.06.2010 19:00 20.7 C 64 % 1012.2 hPa 0.0 l/m 3.9 km/h (1 Bft) O 0.97 h 212 W/m 13.6 C 20.7 C 9.0 km/h (2 Bft)
14.06.2010 20:00 19.4 C 66 % 1012.2 hPa 0.0 l/m 4.4 km/h (1 Bft) N-NO 0.30 h 54 W/m 12.9 C 19.4 C 9.0 km/h (2 Bft)
14.06.2010 21:00 18.1 C 71 % 1013.0 hPa 0.0 l/m 2.8 km/h (1 Bft) N-NO 0.00 h 6 W/m 12.7 C 18.1 C 6.3 km/h (2 Bft)
14.06.2010 22:00 17.4 C 73 % 1013.4 hPa 0.0 l/m 1.9 km/h (1 Bft) NW 0.00 h 0 W/m 12.4 C 17.4 C 4.1 km/h (1 Bft)
14.06.2010 23:00 16.7 C 78 % 1013.4 hPa 0.0 l/m 0.2 km/h (0 Bft) NW 0.00 h 0 W/m 12.9 C 16.7 C 0.6 km/h (0 Bft)
15.06.2010 00:00 16.4 C 77 % 1013.2 hPa 0.0 l/m 1.2 km/h (1 Bft) SO 0.00 h 0 W/m 12.4 C 16.4 C 3.0 km/h (1 Bft)
15.06.2010 01:00 16.0 C 78 % 1013.4 hPa 0.0 l/m 1.6 km/h (1 Bft) N-NO 0.00 h 0 W/m 12.2 C 16.0 C 3.9 km/h (1 Bft)
15.06.2010 02:00 16.2 C 76 % 1012.8 hPa 0.0 l/m 1.6 km/h (1 Bft) NO 0.00 h 0 W/m 12.0 C 16.2 C 4.3 km/h (1 Bft)
15.06.2010 03:00 16.1 C 75 % 1012.2 hPa 0.0 l/m 1.9 km/h (1 Bft) N-NO 0.00 h 0 W/m 11.7 C 16.1 C 4.6 km/h (1 Bft)
15.06.2010 04:00 16.0 C 77 % 1012.0 hPa 0.0 l/m 1.6 km/h (1 Bft) N-NO 0.00 h 0 W/m 11.9 C 16.0 C 4.3 km/h (1 Bft)
15.06.2010 05:00 16.1 C 77 % 1012.0 hPa 0.0 l/m 1.9 km/h (1 Bft) O-SO 0.00 h 6 W/m 12.1 C 16.1 C 5.2 km/h (1 Bft)
15.06.2010 06:00 16.3 C 79 % 1012.0 hPa 0.0 l/m 1.8 km/h (1 Bft) N-NO 0.00 h 18 W/m 12.6 C 16.3 C 4.3 km/h (1 Bft)
15.06.2010 07:00 16.4 C 80 % 1012.5 hPa 0.0 l/m 0.8 km/h (0 Bft) N 0.00 h 48 W/m 12.9 C 16.4 C 2.5 km/h (1 Bft)
15.06.2010 08:00 16.3 C 84 % 1013.3 hPa 0.0 l/m 1.1 km/h (1 Bft) N 0.00 h 81 W/m 13.6 C 16.3 C 3.0 km/h (1 Bft)
15.06.2010 09:00 16.9 C 85 % 1013.6 hPa 0.0 l/m 0.8 km/h (0 Bft) NW 0.00 h 125 W/m 14.3 C 16.9 C 2.2 km/h (1 Bft)
15.06.2010 10:00 17.3 C 82 % 1013.7 hPa 0.0 l/m 0.6 km/h (0 Bft) O-NO 0.00 h 79 W/m 14.2 C 17.3 C 2.0 km/h (1 Bft)
15.06.2010 11:00 17.7 C 81 % 1013.8 hPa 0.0 l/m 1.5 km/h (1 Bft) O-SO 0.00 h 105 W/m 14.5 C 17.7 C 3.5 km/h (1 Bft)
15.06.2010 12:00 18.3 C 84 % 1013.6 hPa 0.0 l/m 2.5 km/h (1 Bft) N-NW 0.00 h 176 W/m 15.5 C 18.3 C 4.8 km/h (1 Bft)
15.06.2010 13:00 19.6 C 81 % 1013.2 hPa 0.0 l/m 3.1 km/h (1 Bft) N-NW 0.12 h 317 W/m 16.1 C 19.6 C 5.9 km/h (2 Bft)
15.06.2010 14:00 21.3 C 72 % 1012.8 hPa 0.0 l/m 4.9 km/h (1 Bft) N-NO 0.08 h 346 W/m 16.0 C 21.3 C 9.9 km/h (2 Bft)
15.06.2010 15:00 21.6 C 71 % 1012.7 hPa 0.0 l/m 5.0 km/h (1 Bft) N-NO 0.22 h 360 W/m 16.1 C 21.6 C 10.3 km/h (2 Bft)
15.06.2010 16:00 21.1 C 72 % 1012.3 hPa 0.0 l/m 4.8 km/h (1 Bft) N-NO 0.00 h 177 W/m 15.7 C 21.1 C 10.4 km/h (2 Bft)
15.06.2010 17:00 20.6 C 73 % 1012.4 hPa 0.0 l/m 4.9 km/h (1 Bft) N-NO 0.00 h 100 W/m 15.5 C 20.6 C 9.9 km/h (2 Bft)
15.06.2010 18:00 20.3 C 74 % 1012.4 hPa 0.0 l/m 4.8 km/h (1 Bft) N-NO 0.00 h 142 W/m 15.4 C 20.3 C 9.4 km/h (2 Bft)
15.06.2010 19:00 20.5 C 71 % 1012.3 hPa 0.0 l/m 4.2 km/h (1 Bft) O 0.00 h 82 W/m 15.0 C 20.5 C 9.7 km/h (2 Bft)
15.06.2010 20:00 20.2 C 70 % 1012.2 hPa 0.0 l/m 4.9 km/h (1 Bft) O 0.00 h 23 W/m 14.6 C 20.2 C 10.2 km/h (2 Bft)
15.06.2010 21:00 19.7 C 72 % 1012.3 hPa 0.0 l/m 3.9 km/h (1 Bft) NO 0.00 h 6 W/m 14.5 C 19.7 C 8.1 km/h (2 Bft)
15.06.2010 22:00 19.5 C 73 % 1012.7 hPa 0.0 l/m 4.8 km/h (1 Bft) N 0.00 h 0 W/m 14.5 C 19.5 C 10.2 km/h (2 Bft)
15.06.2010 23:00 19.1 C 74 % 1012.4 hPa 0.0 l/m 5.2 km/h (1 Bft) N-NO 0.00 h 0 W/m 14.4 C 19.1 C 10.4 km/h (2 Bft)
16.06.2010 00:00 19.0 C 74 % 1012.0 hPa 0.0 l/m 5.9 km/h (2 Bft) N-NO 0.00 h 0 W/m 14.3 C 19.0 C 11.8 km/h (2 Bft)
16.06.2010 01:00 18.6 C 74 % 1011.3 hPa 0.0 l/m 5.3 km/h (1 Bft) N 0.00 h 0 W/m 14.0 C 18.6 C 11.5 km/h (2 Bft)
16.06.2010 02:00 18.1 C 75 % 1010.7 hPa 0.0 l/m 6.1 km/h (2 Bft) N-NO 0.00 h 0 W/m 13.7 C 18.1 C 12.9 km/h (3 Bft)
16.06.2010 03:00 17.9 C 76 % 1010.1 hPa 0.0 l/m 6.4 km/h (2 Bft) N-NO 0.00 h 0 W/m 13.6 C 17.9 C 12.9 km/h (3 Bft)
16.06.2010 04:00 17.9 C 75 % 1010.0 hPa 0.0 l/m 7.3 km/h (2 Bft) N-NO 0.00 h 0 W/m 13.4 C 17.9 C 14.8 km/h (3 Bft)
16.06.2010 05:00 17.6 C 74 % 1009.8 hPa 0.0 l/m 8.4 km/h (2 Bft) N-NO 0.00 h 5 W/m 12.9 C 17.6 C 16.5 km/h (3 Bft)
16.06.2010 06:00 17.3 C 74 % 1009.5 hPa 0.0 l/m 7.1 km/h (2 Bft) O-SO 0.00 h 19 W/m 12.6 C 17.3 C 14.4 km/h (3 Bft)
16.06.2010 07:00 16.7 C 76 % 1009.1 hPa 0.0 l/m 6.1 km/h (2 Bft) N-NO 0.00 h 26 W/m 12.4 C 16.7 C 11.8 km/h (2 Bft)
16.06.2010 08:00 16.3 C 76 % 1009.4 hPa 0.0 l/m 6.2 km/h (2 Bft) SO 0.00 h 45 W/m 12.1 C 16.3 C 12.5 km/h (3 Bft)
16.06.2010 09:00 16.3 C 77 % 1009.6 hPa 0.0 l/m 5.0 km/h (1 Bft) NO 0.00 h 78 W/m 12.2 C 16.3 C 10.3 km/h (2 Bft)
16.06.2010 10:00 16.2 C 76 % 1009.8 hPa 0.0 l/m 6.3 km/h (2 Bft) O 0.00 h 76 W/m 12.1 C 16.2 C 13.3 km/h (3 Bft)
16.06.2010 11:00 16.2 C 78 % 1010.2 hPa 0.0 l/m 6.5 km/h (2 Bft) NO 0.00 h 125 W/m 12.3 C 16.2 C 13.3 km/h (3 Bft)
16.06.2010 12:00 16.0 C 82 % 1010.6 hPa 0.0 l/m 5.7 km/h (1 Bft) N-NO 0.00 h 230 W/m 12.9 C 16.0 C 12.2 km/h (2 Bft)
16.06.2010 13:00 15.8 C 85 % 1011.2 hPa 0.2 l/m 5.4 km/h (1 Bft) NO 0.00 h 255 W/m 13.2 C 15.8 C 11.5 km/h (2 Bft)
16.06.2010 14:00 15.6 C 85 % 1011.6 hPa 0.2 l/m 5.1 km/h (1 Bft) O-SO 0.00 h 236 W/m 13.1 C 15.6 C 10.6 km/h (2 Bft)
16.06.2010 15:00 15.4 C 87 % 1012.1 hPa 0.2 l/m 4.2 km/h (1 Bft) N-NO 0.00 h 218 W/m 13.2 C 15.4 C 8.9 km/h (2 Bft)
16.06.2010 16:00 15.8 C 85 % 1012.1 hPa 0.2 l/m 4.8 km/h (1 Bft) NO 0.00 h 200 W/m 13.4 C 15.8 C 9.7 km/h (2 Bft)
16.06.2010 17:00 15.5 C 82 % 1012.4 hPa 0.0 l/m 5.0 km/h (1 Bft) N 0.00 h 98 W/m 12.5 C 15.5 C 10.9 km/h (2 Bft)
16.06.2010 18:00 15.3 C 81 % 1012.7 hPa 0.0 l/m 4.4 km/h (1 Bft) O-SO 0.00 h 57 W/m 12.1 C 15.3 C 8.9 km/h (2 Bft)
16.06.2010 19:00 15.3 C 81 % 1012.8 hPa 0.0 l/m 4.2 km/h (1 Bft) O 0.00 h 17 W/m 12.0 C 15.3 C 8.3 km/h (2 Bft)
16.06.2010 20:00 15.1 C 82 % 1013.2 hPa 0.0 l/m 1.9 km/h (1 Bft) O-SO 0.00 h 7 W/m 12.1 C 15.1 C 4.9 km/h (1 Bft)
16.06.2010 21:00 15.0 C 83 % 1013.4 hPa 0.0 l/m 0.8 km/h (0 Bft) NO 0.00 h 0 W/m 12.1 C 15.0 C 2.5 km/h (1 Bft)
16.06.2010 22:00 14.5 C 87 % 1013.8 hPa 0.0 l/m 0.7 km/h (0 Bft) NO 0.00 h 0 W/m 12.3 C 14.5 C 2.2 km/h (1 Bft)
16.06.2010 23:00 14.4 C 87 % 1013.3 hPa 0.0 l/m 2.0 km/h (1 Bft) O-SO 0.00 h 0 W/m 12.3 C 14.4 C 4.7 km/h (1 Bft)
17.06.2010 00:00 14.5 C 86 % 1013.2 hPa 0.0 l/m 1.6 km/h (1 Bft) NO 0.00 h 0 W/m 12.3 C 14.5 C 4.2 km/h (1 Bft)
17.06.2010 01:00 14.6 C 86 % 1012.8 hPa 0.0 l/m 1.7 km/h (1 Bft) O-SO 0.00 h 0 W/m 12.2 C 14.6 C 4.2 km/h (1 Bft)
17.06.2010 02:00 14.4 C 87 % 1012.3 hPa 0.0 l/m 1.3 km/h (1 Bft) N-NO 0.00 h 0 W/m 12.2 C 14.4 C 3.1 km/h (1 Bft)
17.06.2010 03:00 14.1 C 89 % 1011.8 hPa 0.0 l/m 1.0 km/h (0 Bft) NO 0.00 h 0 W/m 12.3 C 14.1 C 3.4 km/h (1 Bft)
17.06.2010 04:00 14.1 C 89 % 1011.3 hPa 0.0 l/m 0.8 km/h (0 Bft) O 0.00 h 0 W/m 12.3 C 14.1 C 2.1 km/h (1 Bft)
17.06.2010 05:00 14.0 C 90 % 1011.5 hPa 0.0 l/m 0.3 km/h (0 Bft) N-NO 0.00 h 10 W/m 12.4 C 14.0 C 0.9 km/h (0 Bft)
17.06.2010 06:00 14.0 C 91 % 1011.7 hPa 0.0 l/m 0.2 km/h (0 Bft) NO 0.00 h 19 W/m 12.6 C 14.0 C 0.5 km/h (0 Bft)
17.06.2010 07:00 14.2 C 92 % 1012.0 hPa 0.2 l/m 0.2 km/h (0 Bft) NO 0.00 h 25 W/m 13.0 C 14.2 C 0.5 km/h (0 Bft)
17.06.2010 08:00 14.4 C 94 % 1012.4 hPa 0.0 l/m 0.0 km/h (0 Bft) N 0.00 h 68 W/m 13.4 C 14.4 C 0.3 km/h (0 Bft)
17.06.2010 09:00 14.7 C 93 % 1012.3 hPa 0.0 l/m 1.2 km/h (1 Bft) N-NW 0.00 h 116 W/m 13.6 C 14.7 C 2.7 km/h (1 Bft)
17.06.2010 10:00 15.8 C 90 % 1012.3 hPa 0.0 l/m 0.5 km/h (0 Bft) N 0.08 h 260 W/m 14.1 C 15.8 C 1.4 km/h (1 Bft)
17.06.2010 11:00 17.6 C 82 % 1012.1 hPa 0.0 l/m 1.4 km/h (1 Bft) N-NW 0.23 h 452 W/m 14.5 C 17.6 C 3.0 km/h (1 Bft)
17.06.2010 12:00 17.6 C 82 % 1011.8 hPa 0.0 l/m 0.7 km/h (0 Bft) W 0.00 h 266 W/m 14.4 C 17.6 C 1.7 km/h (1 Bft)
17.06.2010 13:00 19.5 C 76 % 1011.7 hPa 0.0 l/m 2.6 km/h (1 Bft) W 0.32 h 568 W/m 15.1 C 19.5 C 4.8 km/h (1 Bft)
17.06.2010 14:00 20.6 C 71 % 1011.0 hPa 0.0 l/m 4.8 km/h (1 Bft) W 0.92 h 672 W/m 15.0 C 20.6 C 7.5 km/h (2 Bft)
17.06.2010 15:00 21.2 C 69 % 1010.8 hPa 0.0 l/m 2.5 km/h (1 Bft) NW 0.53 h 458 W/m 15.3 C 21.2 C 4.7 km/h (1 Bft)
17.06.2010 16:00 20.3 C 71 % 1010.7 hPa 0.0 l/m 4.9 km/h (1 Bft) W 0.00 h 267 W/m 14.9 C 20.3 C 7.9 km/h (2 Bft)
17.06.2010 17:00 19.6 C 71 % 1010.5 hPa 0.0 l/m 5.3 km/h (1 Bft) W 0.00 h 156 W/m 14.3 C 19.6 C 8.5 km/h (2 Bft)
17.06.2010 18:00 18.9 C 73 % 1010.6 hPa 4.2 l/m 6.8 km/h (2 Bft) W 0.00 h 61 W/m 13.9 C 18.9 C 11.4 km/h (2 Bft)
17.06.2010 19:00 15.0 C 90 % 1011.9 hPa 4.6 l/m 4.6 km/h (1 Bft) N-NW 0.00 h 6 W/m 13.3 C 15.0 C 8.9 km/h (2 Bft)
17.06.2010 20:00 14.6 C 95 % 1012.5 hPa 6.0 l/m 0.2 km/h (0 Bft) W-NW 0.00 h 0 W/m 13.7 C 14.6 C 0.6 km/h (0 Bft)
17.06.2010 21:00 14.2 C 96 % 1013.0 hPa 4.2 l/m 0.3 km/h (0 Bft) S 0.00 h 0 W/m 13.5 C 14.2 C 1.5 km/h (1 Bft)
17.06.2010 22:00 14.0 C 96 % 1013.1 hPa 1.2 l/m 2.4 km/h (1 Bft) S-SO 0.00 h 0 W/m 13.3 C 14.0 C 5.7 km/h (1 Bft)
17.06.2010 23:00 13.7 C 94 % 1013.3 hPa 2.2 l/m 2.6 km/h (1 Bft) S-SO 0.00 h 0 W/m 12.8 C 13.7 C 5.1 km/h (1 Bft)
18.06.2010 00:00 13.6 C 94 % 1013.1 hPa 2.6 l/m 4.8 km/h (1 Bft) S-SO 0.00 h 0 W/m 12.6 C 13.6 C 8.5 km/h (2 Bft)
18.06.2010 01:00 13.4 C 94 % 1012.5 hPa 2.2 l/m 3.7 km/h (1 Bft) S-SO 0.00 h 0 W/m 12.5 C 13.4 C 7.2 km/h (2 Bft)
18.06.2010 02:00 13.4 C 95 % 1012.2 hPa 2.0 l/m 2.8 km/h (1 Bft) S-SO 0.00 h 0 W/m 12.6 C 13.4 C 6.4 km/h (2 Bft)
18.06.2010 03:00 13.3 C 95 % 1011.8 hPa 5.4 l/m 2.2 km/h (1 Bft) S-SO 0.00 h 0 W/m 12.5 C 13.3 C 5.3 km/h (1 Bft)
18.06.2010 04:00 13.3 C 96 % 1011.6 hPa 2.4 l/m 2.9 km/h (1 Bft) S-SO 0.00 h 0 W/m 12.7 C 13.3 C 6.1 km/h (2 Bft)
18.06.2010 05:00 13.3 C 96 % 1011.4 hPa 2.0 l/m 6.0 km/h (2 Bft) W-SW 0.00 h 0 W/m 12.7 C 13.3 C 10.6 km/h (2 Bft)
18.06.2010 06:00 13.3 C 96 % 1011.2 hPa 0.4 l/m 2.0 km/h (1 Bft) W-SW 0.00 h 10 W/m 12.7 C 13.3 C 5.0 km/h (1 Bft)
18.06.2010 07:00 13.4 C 96 % 1011.5 hPa 1.2 l/m 2.6 km/h (1 Bft) S-SO 0.00 h 14 W/m 12.7 C 13.4 C 6.0 km/h (2 Bft)
18.06.2010 08:00 13.6 C 96 % 1011.9 hPa 1.4 l/m 2.0 km/h (1 Bft) S-SO 0.00 h 20 W/m 12.9 C 13.6 C 4.6 km/h (1 Bft)
18.06.2010 09:00 13.8 C 96 % 1012.0 hPa 0.6 l/m 1.3 km/h (1 Bft) W-SW 0.00 h 21 W/m 13.1 C 13.8 C 3.3 km/h (1 Bft)
18.06.2010 10:00 13.8 C 96 % 1012.1 hPa 0.2 l/m 8.9 km/h (2 Bft) W 0.00 h 29 W/m 13.1 C 13.8 C 15.0 km/h (3 Bft)
18.06.2010 11:00 13.8 C 96 % 1012.4 hPa 0.2 l/m 8.6 km/h (2 Bft) W 0.00 h 57 W/m 13.2 C 13.8 C 13.8 km/h (3 Bft)
18.06.2010 12:00 14.2 C 96 % 1012.4 hPa 0.0 l/m 7.6 km/h (2 Bft) W 0.00 h 101 W/m 13.6 C 14.2 C 12.7 km/h (3 Bft)
18.06.2010 13:00 15.5 C 95 % 1012.3 hPa 0.0 l/m 5.7 km/h (1 Bft) W 0.10 h 340 W/m 14.7 C 15.5 C 10.5 km/h (2 Bft)
18.06.2010 14:00 16.6 C 92 % 1011.8 hPa 0.0 l/m 8.3 km/h (2 Bft) W 0.62 h 521 W/m 15.2 C 16.6 C 14.0 km/h (3 Bft)
18.06.2010 15:00 16.9 C 88 % 1011.8 hPa 0.0 l/m 6.8 km/h (2 Bft) W 0.13 h 379 W/m 15.0 C 16.9 C 12.0 km/h (2 Bft)
18.06.2010 16:00 17.1 C 86 % 1011.4 hPa 0.0 l/m 5.9 km/h (2 Bft) W 0.07 h 303 W/m 14.7 C 17.1 C 10.1 km/h (2 Bft)
18.06.2010 17:00 18.0 C 85 % 1011.2 hPa 0.0 l/m 4.9 km/h (1 Bft) W 0.55 h 360 W/m 15.3 C 18.0 C 8.4 km/h (2 Bft)
18.06.2010 18:00 19.0 C 79 % 1010.8 hPa 0.0 l/m 5.5 km/h (1 Bft) W 0.80 h 323 W/m 15.3 C 19.0 C 9.0 km/h (2 Bft)
18.06.2010 19:00 18.3 C 82 % 1010.6 hPa 0.0 l/m 3.0 km/h (1 Bft) W-SW 0.72 h 168 W/m 15.1 C 18.3 C 5.8 km/h (2 Bft)
18.06.2010 20:00 17.2 C 85 % 1010.4 hPa 0.0 l/m 1.5 km/h (1 Bft) W-SW 0.50 h 71 W/m 14.6 C 17.2 C 3.8 km/h (1 Bft)
18.06.2010 21:00 15.7 C 86 % 1010.4 hPa 0.0 l/m 1.1 km/h (1 Bft) S-SO 0.00 h 11 W/m 13.5 C 15.7 C 3.3 km/h (1 Bft)
18.06.2010 22:00 14.9 C 88 % 1010.5 hPa 0.0 l/m 2.0 km/h (1 Bft) S-SO 0.00 h 0 W/m 12.9 C 14.9 C 4.2 km/h (1 Bft)
18.06.2010 23:00 13.9 C 91 % 1010.4 hPa 0.0 l/m 2.0 km/h (1 Bft) S-SO 0.00 h 0 W/m 12.5 C 13.9 C 3.8 km/h (1 Bft)
19.06.2010 00:00 13.4 C 93 % 1010.0 hPa 0.0 l/m 3.6 km/h (1 Bft) S-SO 0.00 h 0 W/m 12.3 C 13.4 C 6.5 km/h (2 Bft)
19.06.2010 01:00 13.6 C 93 % 1009.3 hPa 0.0 l/m 1.0 km/h (0 Bft) S-SO 0.00 h 0 W/m 12.5 C 13.6 C 2.8 km/h (1 Bft)
19.06.2010 02:00 13.7 C 93 % 1008.7 hPa 0.0 l/m 1.1 km/h (1 Bft) O 0.00 h 0 W/m 12.6 C 13.7 C 2.5 km/h (1 Bft)
19.06.2010 03:00 13.7 C 94 % 1008.1 hPa 0.2 l/m 0.1 km/h (0 Bft) O-SO 0.00 h 0 W/m 12.7 C 13.7 C 0.4 km/h (0 Bft)
19.06.2010 04:00 13.5 C 96 % 1007.5 hPa 1.2 l/m 0.2 km/h (0 Bft) O-SO 0.00 h 0 W/m 12.8 C 13.5 C 0.5 km/h (0 Bft)
19.06.2010 05:00 13.4 C 96 % 1006.8 hPa 0.0 l/m 1.7 km/h (1 Bft) W 0.00 h 0 W/m 12.8 C 13.4 C 3.0 km/h (1 Bft)
19.06.2010 06:00 12.7 C 95 % 1006.8 hPa 2.6 l/m 1.4 km/h (1 Bft) O-SO 0.00 h 0 W/m 11.8 C 12.7 C 2.9 km/h (1 Bft)
19.06.2010 07:00 12.2 C 94 % 1006.8 hPa 1.2 l/m 3.5 km/h (1 Bft) O-SO 0.00 h 9 W/m 11.3 C 12.2 C 5.4 km/h (1 Bft)
19.06.2010 08:00 12.3 C 95 % 1006.8 hPa 0.2 l/m 0.0 km/h (0 Bft) N 0.00 h 50 W/m 11.6 C 12.3 C 0.2 km/h (0 Bft)
19.06.2010 09:00 13.0 C 94 % 1006.8 hPa 0.0 l/m 0.2 km/h (0 Bft) O-SO 0.00 h 120 W/m 12.0 C 13.0 C 0.9 km/h (0 Bft)
19.06.2010 10:00 12.9 C 95 % 1006.7 hPa 0.0 l/m 0.8 km/h (0 Bft) SW 0.00 h 68 W/m 12.1 C 12.9 C 2.5 km/h (1 Bft)
19.06.2010 11:00 13.3 C 93 % 1006.7 hPa 0.0 l/m 3.3 km/h (1 Bft) S-SO 0.00 h 236 W/m 12.1 C 13.3 C 6.7 km/h (2 Bft)
19.06.2010 12:00 13.8 C 94 % 1006.8 hPa 0.4 l/m 1.4 km/h (1 Bft) W-NW 0.00 h 189 W/m 12.7 C 13.8 C 3.1 km/h (1 Bft)
19.06.2010 13:00 12.3 C 92 % 1007.2 hPa 1.8 l/m 3.3 km/h (1 Bft) N-NO 0.00 h 170 W/m 11.0 C 12.3 C 6.2 km/h (2 Bft)
19.06.2010 14:00 12.8 C 92 % 1007.2 hPa 0.0 l/m 0.6 km/h (0 Bft) W-NW 0.00 h 237 W/m 11.5 C 12.8 C 1.6 km/h (1 Bft)
19.06.2010 15:00 11.9 C 92 % 1007.3 hPa 0.2 l/m 1.2 km/h (1 Bft) W-NW 0.00 h 85 W/m 10.7 C 11.9 C 3.0 km/h (1 Bft)
19.06.2010 16:00 11.8 C 90 % 1007.6 hPa 0.0 l/m 1.3 km/h (1 Bft) O-SO 0.03 h 115 W/m 10.2 C 11.8 C 3.0 km/h (1 Bft)
19.06.2010 17:00 13.2 C 82 % 1007.3 hPa 0.0 l/m 4.0 km/h (1 Bft) O-SO 0.63 h 401 W/m 10.1 C 13.2 C 6.6 km/h (2 Bft)
19.06.2010 18:00 12.7 C 80 % 1007.3 hPa 0.0 l/m 2.8 km/h (1 Bft) O-SO 0.03 h 145 W/m 9.4 C 12.7 C 4.7 km/h (1 Bft)
19.06.2010 19:00 12.4 C 84 % 1007.2 hPa 0.0 l/m 3.3 km/h (1 Bft) O-SO 0.00 h 51 W/m 9.7 C 12.4 C 5.2 km/h (1 Bft)
19.06.2010 20:00 11.9 C 86 % 1007.5 hPa 0.0 l/m 0.5 km/h (0 Bft) S-SO 0.00 h 19 W/m 9.7 C 11.9 C 1.5 km/h (1 Bft)
19.06.2010 21:00 11.2 C 91 % 1007.9 hPa 1.2 l/m 0.5 km/h (0 Bft) SO 0.00 h 0 W/m 9.8 C 11.2 C 1.6 km/h (1 Bft)
19.06.2010 22:00 10.1 C 94 % 1008.2 hPa 0.0 l/m 0.0 km/h (0 Bft) S-SO 0.00 h 0 W/m 9.2 C 10.1 C 0.4 km/h (0 Bft)
19.06.2010 23:00 9.4 C 95 % 1008.5 hPa 0.0 l/m 0.8 km/h (0 Bft) S-SO 0.00 h 0 W/m 8.7 C 9.4 C 1.6 km/h (1 Bft)
20.06.2010 00:00 9.4 C 96 % 1008.4 hPa 0.0 l/m 0.0 km/h (0 Bft) N 0.00 h 0 W/m 8.8 C 9.4 C 0.0 km/h (0 Bft)
20.06.2010 01:00 9.4 C 96 % 1008.1 hPa 0.0 l/m 0.3 km/h (0 Bft) S-SO 0.00 h 0 W/m 8.7 C 9.4 C 0.7 km/h (0 Bft)
20.06.2010 02:00 9.5 C 96 % 1008.3 hPa 0.0 l/m 0.2 km/h (0 Bft) S-SO 0.00 h 0 W/m 8.9 C 9.5 C 0.7 km/h (0 Bft)
20.06.2010 03:00 9.3 C 96 % 1008.2 hPa 0.0 l/m 0.3 km/h (0 Bft) SW 0.00 h 0 W/m 8.7 C 9.3 C 0.8 km/h (0 Bft)
20.06.2010 04:00 8.8 C 96 % 1008.3 hPa 0.0 l/m 0.5 km/h (0 Bft) W-SW 0.00 h 0 W/m 8.2 C 8.8 C 1.6 km/h (1 Bft)
20.06.2010 05:00 8.2 C 95 % 1008.3 hPa 0.0 l/m 0.3 km/h (0 Bft) W 0.00 h 10 W/m 7.5 C 8.2 C 1.0 km/h (0 Bft)
20.06.2010 06:00 7.9 C 96 % 1008.8 hPa 0.0 l/m 1.1 km/h (1 Bft) W 0.00 h 34 W/m 7.3 C 7.9 C 2.3 km/h (1 Bft)
20.06.2010 07:00 8.6 C 95 % 1009.3 hPa 0.0 l/m 0.0 km/h (0 Bft) N 0.00 h 67 W/m 7.8 C 8.6 C 0.0 km/h (0 Bft)
20.06.2010 08:00 9.6 C 96 % 1009.7 hPa 0.0 l/m 0.3 km/h (0 Bft) W 0.00 h 153 W/m 9.0 C 9.6 C 1.1 km/h (1 Bft)
20.06.2010 09:00 10.8 C 87 % 1009.8 hPa 0.0 l/m 3.6 km/h (1 Bft) N-NO 0.00 h 221 W/m 8.7 C 10.8 C 7.9 km/h (2 Bft)
20.06.2010 10:00 11.7 C 81 % 1010.4 hPa 0.0 l/m 5.2 km/h (1 Bft) N 0.23 h 357 W/m 8.6 C 11.7 C 9.6 km/h (2 Bft)
20.06.2010 11:00 12.7 C 75 % 1010.7 hPa 0.0 l/m 7.1 km/h (2 Bft) N-NO 0.18 h 403 W/m 8.3 C 12.7 C 13.6 km/h (3 Bft)
20.06.2010 12:00 14.5 C 68 % 1010.6 hPa 0.0 l/m 7.0 km/h (2 Bft) N 0.52 h 602 W/m 8.7 C 14.5 C 13.2 km/h (3 Bft)
20.06.2010 13:00 14.1 C 64 % 1010.6 hPa 0.0 l/m 4.9 km/h (1 Bft) O-SO 0.00 h 242 W/m 7.4 C 14.1 C 8.4 km/h (2 Bft)
20.06.2010 14:00 13.5 C 67 % 1011.0 hPa 0.0 l/m 3.8 km/h (1 Bft) O-SO 0.00 h 115 W/m 7.5 C 13.5 C 6.5 km/h (2 Bft)
20.06.2010 15:00 12.7 C 75 % 1011.6 hPa 0.0 l/m 6.1 km/h (2 Bft) O-SO 0.00 h 94 W/m 8.3 C 12.7 C 9.8 km/h (2 Bft)
20.06.2010 16:00 12.3 C 77 % 1012.2 hPa 0.0 l/m 2.3 km/h (1 Bft) O-SO 0.00 h 105 W/m 8.4 C 12.3 C 4.0 km/h (1 Bft)
20.06.2010 17:00 12.8 C 74 % 1012.6 hPa 0.0 l/m 0.7 km/h (0 Bft) O-SO 0.00 h 116 W/m 8.3 C 12.8 C 1.8 km/h (1 Bft)
20.06.2010 18:00 12.4 C 79 % 1013.1 hPa 0.0 l/m 0.1 km/h (0 Bft) O-SO 0.00 h 40 W/m 8.8 C 12.4 C 0.5 km/h (0 Bft)
20.06.2010 19:00 12.4 C 81 % 1013.5 hPa 0.0 l/m 0.4 km/h (0 Bft) O-SO 0.00 h 30 W/m 9.3 C 12.4 C 0.8 km/h (0 Bft)
20.06.2010 20:00 11.9 C 86 % 1014.1 hPa 0.0 l/m 1.1 km/h (1 Bft) O-SO 0.00 h 14 W/m 9.7 C 11.9 C 2.0 km/h (1 Bft)
20.06.2010 21:00 11.6 C 88 % 1014.7 hPa 0.0 l/m 0.6 km/h (0 Bft) O-SO 0.00 h 0 W/m 9.6 C 11.6 C 1.4 km/h (1 Bft)
20.06.2010 22:00 11.4 C 89 % 1015.1 hPa 0.0 l/m 0.2 km/h (0 Bft) O-SO 0.00 h 0 W/m 9.7 C 11.4 C 0.7 km/h (0 Bft)
20.06.2010 23:00 11.0 C 91 % 1015.5 hPa 0.0 l/m 2.4 km/h (1 Bft) O-SO 0.00 h 0 W/m 9.6 C 11.0 C 3.8 km/h (1 Bft)
Min-Datum _ 20.06.10 14.06.10 19.06.10 - 14.06.10 - - - 20.06.10 20.06.10 14.06.10
_ Min-Zeit 06:19 15:44 10:31 - 00:05 - - - 13:37 06:19 00:05
Minimum _ 7.6 C 50 % 1006.6 hPa - 0.0 km/h (0 Bft) - - - 6.6 C 7.7 C 0.0 km/h (0 Bft)
Max-Datum _ 14.06.10 20.06.10 20.06.10 17.06.10 14.06.10 - 14.06.10 17.06.10 15.06.10 14.06.10 14.06.10
_ Max-Zeit 15:14 08:03 23:00 20:00 16:17 - 08:43 13:47 15:26 15:14 16:15
Maximum _ 24.0 C 99 % 1015.5 hPa 6.0 l/m 22.6 km/h
W (4 Bft)
- 0.02 h 1201 W/m 17.5 C 24.0 C 33.0 km/h
W (5 Bft)
Durchschnitt _ 15.3 C 84 % 1011.2 hPa #53.0 l/m 2.9 km/h (1 Bft) O-SO #15:56 h 186 W/m 12.5 C 15.3 C 5.7 km/h (1 Bft)
© Kaiko 2010